createdAt,value
2019-04-20T00:01:03.501Z,7.00
2019-04-20T00:03:37.989Z,7.00
2019-04-20T00:06:04.687Z,6.90
2019-04-20T00:08:37.701Z,6.90
2019-04-20T00:11:15.639Z,6.80
2019-04-20T00:13:48.803Z,6.70
2019-04-20T00:16:08.687Z,6.60
2019-04-20T00:18:43.081Z,6.60
2019-04-20T00:21:29.003Z,6.60
2019-04-20T00:24:07.386Z,6.70
2019-04-20T00:27:04.748Z,6.80
2019-04-20T00:29:21.310Z,6.80
2019-04-20T00:31:49.766Z,6.80
2019-04-20T00:34:15.685Z,6.80
2019-04-20T00:36:39.237Z,6.70
2019-04-20T00:39:11.866Z,6.70
2019-04-20T00:41:51.011Z,6.70
2019-04-20T00:44:20.674Z,6.60
2019-04-20T00:46:56.919Z,6.40
2019-04-20T00:49:35.076Z,6.30
2019-04-20T00:52:15.191Z,6.30
2019-04-20T00:54:18.149Z,6.40
2019-04-20T00:56:47.880Z,6.40
2019-04-20T00:59:31.557Z,6.50
2019-04-20T01:02:10.801Z,6.50
2019-04-20T01:04:41.058Z,6.40
2019-04-20T01:07:11.255Z,6.30
2019-04-20T01:09:30.884Z,6.30
2019-04-20T01:12:04.056Z,6.20
2019-04-20T01:14:40.611Z,6.30
2019-04-20T01:17:11.782Z,6.40
2019-04-20T01:19:34.669Z,6.50
2019-04-20T01:22:07.967Z,6.50
2019-04-20T01:24:40.484Z,6.50
2019-04-20T01:27:25.897Z,6.40
2019-04-20T01:29:45.668Z,6.30
2019-04-20T01:32:22.375Z,6.10
2019-04-20T01:34:52.375Z,6.10
2019-04-20T01:37:25.910Z,6.10
2019-04-20T01:39:49.177Z,6.10
2019-04-20T01:42:15.253Z,6.00
2019-04-20T01:44:48.588Z,6.00
2019-04-20T01:47:17.076Z,6.00
2019-04-20T01:49:53.949Z,6.00
2019-04-20T01:52:26.910Z,6.00
2019-04-20T01:55:15.775Z,6.10
2019-04-20T01:57:54.574Z,6.10
2019-04-20T02:00:23.272Z,6.00
2019-04-20T02:02:56.518Z,6.00
2019-04-20T02:05:27.534Z,5.90
2019-04-20T02:07:54.169Z,5.90
2019-04-20T02:10:33.291Z,5.80
2019-04-20T02:12:59.870Z,5.70
2019-04-20T02:15:32.687Z,5.70
2019-04-20T02:18:07.466Z,5.60
2019-04-20T02:20:51.491Z,5.50
2019-04-20T02:23:14.996Z,5.50
2019-04-20T02:25:31.657Z,5.50
2019-04-20T02:28:19.207Z,5.60
2019-04-20T02:31:15.622Z,5.70
2019-04-20T02:33:42.854Z,5.70
2019-04-20T02:39:05.702Z,5.70
2019-04-20T02:41:17.752Z,5.90
2019-04-20T02:43:57.656Z,6.00
2019-04-20T02:46:17.109Z,6.00
2019-04-20T02:48:52.489Z,5.90
2019-04-20T02:51:23.572Z,5.70
2019-04-20T02:54:02.155Z,5.60
2019-04-20T02:59:13.350Z,5.50
2019-04-20T03:01:29.120Z,5.40
2019-04-20T03:03:44.924Z,5.30
2019-04-20T03:06:22.064Z,5.30
2019-04-20T03:09:04.792Z,5.40
2019-04-20T03:11:42.606Z,5.40
2019-04-20T03:14:08.421Z,5.40
2019-04-20T03:16:32.199Z,5.30
2019-04-20T03:19:02.997Z,5.40
2019-04-20T03:21:47.886Z,5.40
2019-04-20T03:24:21.518Z,5.50
2019-04-20T03:26:40.330Z,5.50
2019-04-20T03:29:35.962Z,5.40
2019-04-20T03:32:40.219Z,5.30
2019-04-20T03:37:17.205Z,5.20
2019-04-20T03:39:37.601Z,5.20
2019-04-20T03:41:54.977Z,5.20
2019-04-20T03:44:26.468Z,5.20
2019-04-20T03:46:59.792Z,5.10
2019-04-20T03:49:52.841Z,4.90
2019-04-20T03:52:27.785Z,4.80
2019-04-20T03:54:54.359Z,4.70
2019-04-20T03:57:40.965Z,4.80
2019-04-20T04:00:24.425Z,4.80
2019-04-20T04:05:30.307Z,5.00
2019-04-20T04:07:46.777Z,5.20
2019-04-20T04:10:24.993Z,5.30
2019-04-20T04:13:18.605Z,5.30
2019-04-20T04:15:55.589Z,5.40
2019-04-20T04:18:29.800Z,5.40
2019-04-20T04:21:00.057Z,5.50
2019-04-20T04:23:40.807Z,5.60
2019-04-20T04:26:12.957Z,5.60
2019-04-20T04:28:43.316Z,5.70
2019-04-20T04:31:16.416Z,5.70
2019-04-20T04:34:04.357Z,5.70
2019-04-20T04:36:17.798Z,5.70
2019-04-20T04:39:08.676Z,5.80
2019-04-20T04:43:53.867Z,5.90
2019-04-20T04:46:07.965Z,5.90
2019-04-20T04:48:42.772Z,6.00
2019-04-20T04:51:15.460Z,6.10
2019-04-20T04:53:52.461Z,6.20
2019-04-20T04:56:17.099Z,6.40
2019-04-20T04:58:43.008Z,6.50
2019-04-20T05:01:20.065Z,6.60
2019-04-20T05:04:11.516Z,6.50
2019-04-20T05:06:31.737Z,6.50
2019-04-20T05:08:53.059Z,6.50
2019-04-20T05:11:19.704Z,6.50
2019-04-20T05:13:56.700Z,6.60
2019-04-20T05:16:43.191Z,6.70
2019-04-20T05:19:13.374Z,6.80
2019-04-20T05:21:49.860Z,6.80
2019-04-20T05:24:28.823Z,6.70
2019-04-20T05:27:08.959Z,6.70
2019-04-20T05:29:24.915Z,6.70
2019-04-20T05:31:55.902Z,6.90
2019-04-20T05:34:45.346Z,7.10
2019-04-20T05:37:20.835Z,7.40
2019-04-20T05:39:47.409Z,7.60
2019-04-20T05:42:17.905Z,8.00
2019-04-20T05:44:50.070Z,8.40
2019-04-20T05:47:18.161Z,8.80
2019-04-20T05:49:45.060Z,9.10
2019-04-20T05:52:36.134Z,9.40
2019-04-20T05:54:58.109Z,9.60
2019-04-20T06:00:01.810Z,10.00
2019-04-20T06:02:27.348Z,10.10
2019-04-20T06:07:34.778Z,10.50
2019-04-20T06:10:06.580Z,10.70
2019-04-20T06:12:36.311Z,11.10
2019-04-20T06:15:15.615Z,11.40
2019-04-20T06:18:10.669Z,11.70
2019-04-20T06:20:41.114Z,12.10
2019-04-20T06:23:42.778Z,12.40
2019-04-20T06:26:26.853Z,12.50
2019-04-20T06:28:40.020Z,12.80
2019-04-20T06:31:18.002Z,13.10
2019-04-20T06:36:49.641Z,13.30
2019-04-20T06:39:20.417Z,13.50
2019-04-20T06:42:08.114Z,13.70
2019-04-20T06:44:30.424Z,13.90
2019-04-20T06:49:28.913Z,14.20
2019-04-20T06:52:14.222Z,14.30
2019-04-20T06:54:36.152Z,14.40
2019-04-20T06:57:05.840Z,14.50
2019-04-20T06:59:43.438Z,14.60
2019-04-20T07:02:17.293Z,14.80
2019-04-20T07:04:48.577Z,15.10
2019-04-20T07:07:17.097Z,15.20
2019-04-20T07:09:58.238Z,15.40
2019-04-20T07:12:14.347Z,15.60
2019-04-20T07:14:37.967Z,15.90
2019-04-20T07:17:34.965Z,16.10
2019-04-20T07:19:56.405Z,16.30
2019-04-20T07:22:39.446Z,16.50
2019-04-20T07:25:07.922Z,16.60
2019-04-20T07:27:41.546Z,16.80
2019-04-20T07:30:12.063Z,16.80
2019-04-20T07:32:49.659Z,16.90
2019-04-20T07:35:14.512Z,16.90
2019-04-20T07:40:20.616Z,16.90
2019-04-20T07:42:55.544Z,16.90
2019-04-20T07:48:04.922Z,17.20
2019-04-20T07:50:25.268Z,17.30
2019-04-20T07:52:51.624Z,17.30
2019-04-20T07:55:40.878Z,17.50
2019-04-20T07:57:58.075Z,17.40
2019-04-20T08:00:51.956Z,17.50
2019-04-20T08:03:29.374Z,17.50
2019-04-20T08:05:50.120Z,17.70
2019-04-20T08:08:28.116Z,17.70
2019-04-20T08:11:02.619Z,17.70
2019-04-20T08:13:40.360Z,17.80
2019-04-20T08:16:06.905Z,17.90
2019-04-20T08:18:40.226Z,18.10
2019-04-20T08:21:08.266Z,18.30
2019-04-20T08:23:39.065Z,18.30
2019-04-20T08:26:00.430Z,18.40
2019-04-20T08:28:35.902Z,18.50
2019-04-20T08:31:33.425Z,18.30
2019-04-20T08:34:33.731Z,18.20
2019-04-20T08:39:48.175Z,18.20
2019-04-20T08:42:00.552Z,18.20
2019-04-20T08:44:48.490Z,18.40
2019-04-20T08:47:16.169Z,18.40
2019-04-20T08:49:47.138Z,18.50
2019-04-20T08:52:34.334Z,18.50
2019-04-20T08:54:34.465Z,18.50
2019-04-20T08:56:55.292Z,18.50
2019-04-20T08:59:23.348Z,18.50
2019-04-20T09:01:53.534Z,18.50
2019-04-20T09:04:36.047Z,18.40
2019-04-20T09:07:06.468Z,18.40
2019-04-20T09:12:14.466Z,18.60
2019-04-20T09:14:30.261Z,18.90
2019-04-20T09:17:08.066Z,19.10
2019-04-20T09:19:46.954Z,19.10
2019-04-20T09:22:32.991Z,19.10
2019-04-20T09:25:36.484Z,19.00
2019-04-20T09:27:35.077Z,19.00
2019-04-20T09:30:09.224Z,19.00
2019-04-20T09:32:56.669Z,18.90
2019-04-20T09:35:36.087Z,18.60
2019-04-20T09:38:12.059Z,18.80
2019-04-20T09:40:43.462Z,19.00
2019-04-20T09:42:57.899Z,19.20
2019-04-20T09:45:38.231Z,19.20
2019-04-20T09:48:07.047Z,19.20
2019-04-20T09:50:55.559Z,19.30
2019-04-20T09:53:22.137Z,19.30
2019-04-20T09:55:56.755Z,19.30
2019-04-20T09:58:21.274Z,19.40
2019-04-20T10:01:02.057Z,19.40
2019-04-20T10:03:18.458Z,19.20
2019-04-20T10:05:49.519Z,19.40
2019-04-20T10:08:19.693Z,19.40
2019-04-20T10:10:51.174Z,19.60
2019-04-20T10:13:21.578Z,19.40
2019-04-20T10:15:51.437Z,19.50
2019-04-20T10:18:21.864Z,19.60
2019-04-20T10:20:51.710Z,19.60
2019-04-20T10:23:22.441Z,19.70
2019-04-20T10:25:52.404Z,19.60
2019-04-20T10:28:23.389Z,19.40
2019-04-20T10:30:53.095Z,19.30
2019-04-20T10:33:23.758Z,19.30
2019-04-20T10:35:53.906Z,19.30
2019-04-20T10:38:31.048Z,19.30
2019-04-20T10:41:08.341Z,19.50
2019-04-20T10:43:30.954Z,19.60
2019-04-20T10:46:00.824Z,19.60
2019-04-20T10:48:33.964Z,19.70
2019-04-20T10:51:03.052Z,19.70
2019-04-20T10:53:32.824Z,19.70
2019-04-20T10:56:03.432Z,19.60
2019-04-20T10:58:33.799Z,19.70
2019-04-20T11:01:03.904Z,19.70
2019-04-20T11:03:34.589Z,19.80
2019-04-20T11:06:04.882Z,20.00
2019-04-20T11:08:34.866Z,19.90
2019-04-20T11:11:13.106Z,20.00
2019-04-20T11:13:37.344Z,19.70
2019-04-20T11:16:08.498Z,19.90
2019-04-20T11:18:39.610Z,20.00
2019-04-20T11:21:09.418Z,19.70
2019-04-20T11:23:40.329Z,19.70
2019-04-20T11:26:10.554Z,19.90
2019-04-20T11:28:40.209Z,20.10
2019-04-20T11:31:10.270Z,20.30
2019-04-20T11:33:40.420Z,20.20
2019-04-20T11:36:10.168Z,20.00
2019-04-20T11:38:40.756Z,20.00
2019-04-20T11:41:18.173Z,20.00
2019-04-20T11:43:42.002Z,20.00
2019-04-20T11:46:12.339Z,19.90
2019-04-20T11:48:43.279Z,19.90
2019-04-20T11:51:13.753Z,20.00
2019-04-20T11:53:43.488Z,20.10
2019-04-20T11:56:18.175Z,20.10
2019-04-20T11:58:44.907Z,20.10
2019-04-20T12:01:39.241Z,20.20
2019-04-20T12:04:20.163Z,20.20
2019-04-20T12:06:34.860Z,20.10
2019-04-20T12:09:09.090Z,20.30
2019-04-20T12:11:53.510Z,20.40
2019-04-20T12:14:10.444Z,20.30
2019-04-20T12:16:40.084Z,20.40
2019-04-20T12:19:10.585Z,20.30
2019-04-20T12:21:40.921Z,20.40
2019-04-20T12:24:12.246Z,20.50
2019-04-20T12:26:42.741Z,20.60
2019-04-20T12:29:12.437Z,20.60
2019-04-20T12:31:44.346Z,20.70
2019-04-20T12:34:16.028Z,20.70
2019-04-20T12:36:46.953Z,20.80
2019-04-20T12:39:17.261Z,20.70
2019-04-20T12:41:52.894Z,20.50
2019-04-20T12:44:19.601Z,20.60
2019-04-20T12:46:49.885Z,20.40
2019-04-20T12:49:19.895Z,20.30
2019-04-20T12:51:54.651Z,20.10
2019-04-20T12:54:20.869Z,20.20
2019-04-20T12:56:50.752Z,20.30
2019-04-20T12:59:21.193Z,20.40
2019-04-20T13:01:51.368Z,20.40
2019-04-20T13:04:22.583Z,20.40
2019-04-20T13:06:55.222Z,20.30
2019-04-20T13:09:28.342Z,20.30
2019-04-20T13:12:05.420Z,20.30
2019-04-20T13:14:56.155Z,20.40
2019-04-20T13:17:26.247Z,20.50
2019-04-20T13:19:57.388Z,20.60
2019-04-20T13:22:27.143Z,20.60
2019-04-20T13:24:57.008Z,20.60
2019-04-20T13:27:27.056Z,20.40
2019-04-20T13:29:56.631Z,20.20
2019-04-20T13:32:27.627Z,20.00
2019-04-20T13:34:58.269Z,20.10
2019-04-20T13:37:28.494Z,20.30
2019-04-20T13:39:58.645Z,20.40
2019-04-20T13:42:30.197Z,20.50
2019-04-20T13:45:01.054Z,20.50
2019-04-20T13:47:30.946Z,20.50
2019-04-20T13:50:01.090Z,20.50
2019-04-20T13:52:31.164Z,20.50
2019-04-20T13:55:00.904Z,20.60
2019-04-20T13:57:49.551Z,20.60
2019-04-20T14:00:37.544Z,20.60
2019-04-20T14:03:12.881Z,20.60
2019-04-20T14:05:42.915Z,20.50
2019-04-20T14:08:17.642Z,20.50
2019-04-20T14:10:47.386Z,20.50
2019-04-20T14:13:20.329Z,20.40
2019-04-20T14:15:49.233Z,20.40
2019-04-20T14:18:19.433Z,20.30
2019-04-20T14:20:50.072Z,20.20
2019-04-20T14:23:21.068Z,20.10
2019-04-20T14:25:51.165Z,20.20
2019-04-20T14:28:21.026Z,20.30
2019-04-20T14:30:51.974Z,20.20
2019-04-20T14:33:22.884Z,20.20
2019-04-20T14:35:52.973Z,20.30
2019-04-20T14:38:22.642Z,20.40
2019-04-20T14:40:52.550Z,20.30
2019-04-20T14:43:22.435Z,20.30
2019-04-20T14:45:52.488Z,20.40
2019-04-20T14:48:22.768Z,20.20
2019-04-20T14:50:53.782Z,20.30
2019-04-20T14:53:23.458Z,20.30
2019-04-20T14:55:53.647Z,20.30
2019-04-20T14:58:43.922Z,20.30
2019-04-20T15:01:32.474Z,20.30
2019-04-20T15:04:08.993Z,20.20
2019-04-20T15:06:37.694Z,20.20
2019-04-20T15:09:08.948Z,20.10
2019-04-20T15:11:41.662Z,20.10
2019-04-20T15:14:11.104Z,19.90
2019-04-20T15:16:40.841Z,19.90
2019-04-20T15:19:11.686Z,19.90
2019-04-20T15:21:47.410Z,19.90
2019-04-20T15:24:17.786Z,19.90
2019-04-20T15:26:48.767Z,19.90
2019-04-20T15:29:18.504Z,19.90
2019-04-20T15:31:48.240Z,19.90
2019-04-20T15:34:19.539Z,19.80
2019-04-20T15:36:49.845Z,19.90
2019-04-20T15:39:19.542Z,19.90
2019-04-20T15:41:49.575Z,19.90
2019-04-20T15:44:19.448Z,19.90
2019-04-20T15:46:49.227Z,19.80
2019-04-20T15:49:19.898Z,19.80
2019-04-20T15:51:50.028Z,19.80
2019-04-20T15:54:19.811Z,19.80
2019-04-20T15:56:56.485Z,19.80
2019-04-20T15:59:22.173Z,19.80
2019-04-20T16:01:53.575Z,19.80
2019-04-20T16:04:43.471Z,19.70
2019-04-20T16:07:15.061Z,19.60
2019-04-20T16:09:46.270Z,19.50
2019-04-20T16:12:17.239Z,19.50
2019-04-20T16:14:47.408Z,19.50
2019-04-20T16:17:17.443Z,19.40
2019-04-20T16:19:55.394Z,19.40
2019-04-20T16:22:21.590Z,19.30
2019-04-20T16:24:53.703Z,19.30
2019-04-20T16:27:29.676Z,19.30
2019-04-20T16:29:59.894Z,19.20
2019-04-20T16:32:30.407Z,19.10
2019-04-20T16:35:00.371Z,19.10
2019-04-20T16:37:30.604Z,19.10
2019-04-20T16:40:00.805Z,19.10
2019-04-20T16:42:32.174Z,19.10
2019-04-20T16:45:03.174Z,19.10
2019-04-20T16:47:34.294Z,19.00
2019-04-20T16:50:06.933Z,18.90
2019-04-20T16:52:36.909Z,18.90
2019-04-20T16:55:08.213Z,18.90
2019-04-20T16:57:39.712Z,18.80
2019-04-20T17:00:11.506Z,18.70
2019-04-20T17:02:42.384Z,18.60
2019-04-20T17:05:13.526Z,18.60
2019-04-20T17:07:45.012Z,18.50
2019-04-20T17:10:17.929Z,18.40
2019-04-20T17:12:48.080Z,18.30
2019-04-20T17:15:19.480Z,18.30
2019-04-20T17:17:50.261Z,18.20
2019-04-20T17:20:21.991Z,18.10
2019-04-20T17:22:52.496Z,18.00
2019-04-20T17:25:22.186Z,17.90
2019-04-20T17:27:54.834Z,17.70
2019-04-20T17:30:45.973Z,17.60
2019-04-20T17:33:25.794Z,17.40
2019-04-20T17:36:03.596Z,17.10
2019-04-20T17:38:34.706Z,16.90
2019-04-20T17:41:14.657Z,16.60
2019-04-20T17:43:37.186Z,16.40
2019-04-20T17:46:10.106Z,16.20
2019-04-20T17:48:43.198Z,16.00
2019-04-20T17:51:23.384Z,15.80
2019-04-20T17:53:49.051Z,15.70
2019-04-20T17:56:12.150Z,15.60
2019-04-20T17:58:41.925Z,15.40
2019-04-20T18:01:34.844Z,15.30
2019-04-20T18:04:37.009Z,15.20
2019-04-20T18:06:50.536Z,14.90
2019-04-20T18:09:34.442Z,14.70
2019-04-20T18:11:46.425Z,14.60
2019-04-20T18:14:30.476Z,14.40
2019-04-20T18:17:13.749Z,14.30
2019-04-20T18:19:39.200Z,14.20
2019-04-20T18:22:11.818Z,13.90
2019-04-20T18:25:02.549Z,13.80
2019-04-20T18:27:37.530Z,13.70
2019-04-20T18:30:01.175Z,13.60
2019-04-20T18:32:21.193Z,13.50
2019-04-20T18:34:59.146Z,13.40
2019-04-20T18:37:28.652Z,13.30
2019-04-20T18:40:03.918Z,13.10
2019-04-20T18:42:36.727Z,13.00
2019-04-20T18:45:17.383Z,13.00
2019-04-20T18:47:49.342Z,12.90
2019-04-20T18:50:16.582Z,12.90
2019-04-20T18:52:37.860Z,12.90
2019-04-20T18:55:17.316Z,12.70
2019-04-20T18:57:41.583Z,12.70
2019-04-20T19:00:19.115Z,12.90
2019-04-20T19:02:52.033Z,13.00
2019-04-20T19:05:17.824Z,13.10
2019-04-20T19:07:57.217Z,13.20
2019-04-20T19:10:27.407Z,13.20
2019-04-20T19:12:59.353Z,13.20
2019-04-20T19:15:50.885Z,13.10
2019-04-20T19:18:18.440Z,13.10
2019-04-20T19:20:55.106Z,13.00
2019-04-20T19:23:25.107Z,12.60
2019-04-20T19:26:04.429Z,12.30
2019-04-20T19:28:31.855Z,12.30
2019-04-20T19:31:11.449Z,12.20
2019-04-20T19:33:52.072Z,12.30
2019-04-20T19:36:15.106Z,12.40
2019-04-20T19:38:46.557Z,12.40
2019-04-20T19:41:21.843Z,12.30
2019-04-20T19:43:49.022Z,12.10
2019-04-20T19:46:42.757Z,12.00
2019-04-20T19:48:49.697Z,11.90
2019-04-20T19:51:32.898Z,11.80
2019-04-20T19:54:09.487Z,11.80
2019-04-20T19:56:32.385Z,11.80
2019-04-20T19:59:01.146Z,11.80
2019-04-20T20:01:17.646Z,11.80
2019-04-20T20:03:55.769Z,11.70
2019-04-20T20:06:29.285Z,11.80
2019-04-20T20:08:55.802Z,11.80
2019-04-20T20:11:29.451Z,11.70
2019-04-20T20:13:55.446Z,11.50
2019-04-20T20:16:33.601Z,11.40
2019-04-20T20:19:05.901Z,11.30
2019-04-20T20:21:41.759Z,11.20
2019-04-20T20:23:59.713Z,11.00
2019-04-20T20:26:34.921Z,11.00
2019-04-20T20:29:14.618Z,10.90
2019-04-20T20:31:48.587Z,10.80
2019-04-20T20:34:14.589Z,10.80
2019-04-20T20:36:43.516Z,10.60
2019-04-20T20:39:19.301Z,10.30
2019-04-20T20:41:53.086Z,10.00
2019-04-20T20:44:26.099Z,9.90
2019-04-20T20:46:55.104Z,9.80
2019-04-20T20:49:32.804Z,9.70
2019-04-20T20:52:08.330Z,9.60
2019-04-20T20:54:35.949Z,9.50
2019-04-20T20:57:00.912Z,9.40
2019-04-20T20:59:35.848Z,9.40
2019-04-20T21:02:05.805Z,9.30
2019-04-20T21:04:24.050Z,9.20
2019-04-20T21:06:54.791Z,9.10
2019-04-20T21:09:25.661Z,9.10
2019-04-20T21:12:00.712Z,9.10
2019-04-20T21:14:31.123Z,9.00
2019-04-20T21:17:04.973Z,8.90
2019-04-20T21:19:50.865Z,8.70
2019-04-20T21:22:08.568Z,8.50
2019-04-20T21:24:39.975Z,8.40
2019-04-20T21:27:14.613Z,8.40
2019-04-20T21:29:47.485Z,8.40
2019-04-20T21:32:16.196Z,8.50
2019-04-20T21:34:51.293Z,8.40
2019-04-20T21:37:19.074Z,8.50
2019-04-20T21:39:55.408Z,8.50
2019-04-20T21:42:21.659Z,8.60
2019-04-20T21:44:51.999Z,8.50
2019-04-20T21:47:23.800Z,8.50
2019-04-20T21:50:08.341Z,8.30
2019-04-20T21:52:32.344Z,8.10
2019-04-20T21:54:56.205Z,8.10
2019-04-20T21:57:26.229Z,8.00
2019-04-20T22:00:08.412Z,7.90
2019-04-20T22:02:33.864Z,7.90
2019-04-20T22:05:01.260Z,7.80
2019-04-20T22:07:32.159Z,7.90
2019-04-20T22:10:02.712Z,7.90
2019-04-20T22:12:38.455Z,7.90
2019-04-20T22:15:15.114Z,7.90
2019-04-20T22:17:39.094Z,7.90
2019-04-20T22:20:20.224Z,7.80
2019-04-20T22:22:57.192Z,7.80
2019-04-20T22:25:28.642Z,7.80
2019-04-20T22:27:44.201Z,7.80
2019-04-20T22:30:14.769Z,7.60
2019-04-20T22:32:49.577Z,7.70
2019-04-20T22:35:17.515Z,7.70
2019-04-20T22:38:08.964Z,7.70
2019-04-20T22:40:36.771Z,7.70
2019-04-20T22:43:06.543Z,7.60
2019-04-20T22:45:42.232Z,7.70
2019-04-20T22:48:11.029Z,7.80
2019-04-20T22:51:02.749Z,7.90
2019-04-20T22:53:25.004Z,7.80
2019-04-20T22:56:02.851Z,7.40
2019-04-20T22:58:28.984Z,7.40
2019-04-20T23:00:52.002Z,7.40
2019-04-20T23:03:16.798Z,7.40
2019-04-20T23:05:46.973Z,7.70
2019-04-20T23:08:17.077Z,7.80
2019-04-20T23:10:48.134Z,7.60
2019-04-20T23:13:21.198Z,7.40
2019-04-20T23:15:55.419Z,7.40
2019-04-20T23:18:22.325Z,7.70
2019-04-20T23:20:56.590Z,7.90
2019-04-20T23:23:27.061Z,8.00
2019-04-20T23:25:54.793Z,8.10
2019-04-20T23:28:24.556Z,8.20
2019-04-20T23:30:59.834Z,8.20
2019-04-20T23:33:25.684Z,8.20
2019-04-20T23:35:59.173Z,8.10
2019-04-20T23:38:26.680Z,8.10
2019-04-20T23:40:57.666Z,8.00
2019-04-20T23:43:33.337Z,7.60
2019-04-20T23:46:23.957Z,7.60
2019-04-20T23:49:13.556Z,7.80
2019-04-20T23:52:02.322Z,8.00
2019-04-20T23:54:17.655Z,8.00
2019-04-20T23:56:41.562Z,7.80
2019-04-20T23:59:12.759Z,7.50
